createdAt,value
2018-06-15T00:00:12.902Z,11.80
2018-06-15T00:02:41.656Z,13.00
2018-06-15T00:05:09.993Z,12.07
2018-06-15T00:07:38.665Z,13.20
2018-06-15T00:10:07.381Z,13.53
2018-06-15T00:12:36.122Z,15.03
2018-06-15T00:15:04.886Z,12.67
2018-06-15T00:17:33.618Z,12.87
2018-06-15T00:20:02.334Z,11.50
2018-06-15T00:22:31.076Z,14.17
2018-06-15T00:25:00.721Z,11.50
2018-06-15T00:27:29.469Z,14.60
2018-06-15T00:29:58.193Z,11.30
2018-06-15T00:32:26.915Z,11.90
2018-06-15T00:34:55.606Z,11.80
2018-06-15T00:37:24.344Z,11.60
2018-06-15T00:39:53.010Z,12.70
2018-06-15T00:42:21.719Z,15.23
2018-06-15T00:44:50.434Z,13.73
2018-06-15T00:47:19.158Z,13.07
2018-06-15T00:49:47.886Z,13.87
2018-06-15T00:52:16.604Z,13.70
2018-06-15T00:54:45.388Z,13.17
2018-06-15T00:57:25.266Z,13.47
2018-06-15T00:59:54.034Z,13.40
2018-06-15T01:02:22.757Z,12.60
2018-06-15T01:04:51.577Z,14.13
2018-06-15T01:07:20.364Z,12.50
2018-06-15T01:09:49.099Z,14.07
2018-06-15T01:12:17.822Z,13.27
2018-06-15T01:14:46.566Z,14.80
2018-06-15T01:17:15.298Z,11.60
2018-06-15T01:19:44.070Z,12.57
2018-06-15T01:22:12.815Z,13.27
2018-06-15T01:24:44.785Z,13.60
2018-06-15T01:27:13.495Z,13.83
2018-06-15T01:29:42.266Z,14.53
2018-06-15T01:32:10.966Z,14.07
2018-06-15T01:34:39.669Z,14.63
2018-06-15T01:37:08.409Z,14.27
2018-06-15T01:39:36.757Z,14.73
2018-06-15T01:42:05.527Z,14.20
2018-06-15T01:44:34.205Z,16.47
2018-06-15T01:47:02.913Z,14.83
2018-06-15T01:49:31.678Z,14.40
2018-06-15T01:52:00.378Z,13.80
2018-06-15T01:54:29.102Z,14.43
2018-06-15T01:56:57.775Z,14.63
2018-06-15T01:59:26.514Z,14.20
2018-06-15T02:01:55.215Z,15.70
2018-06-15T02:04:24.958Z,14.03
2018-06-15T02:06:53.261Z,16.93
2018-06-15T02:09:21.936Z,13.87
2018-06-15T02:11:50.699Z,15.83
2018-06-15T02:14:19.392Z,13.50
2018-06-15T02:16:48.129Z,13.67
2018-06-15T02:19:16.848Z,15.20
2018-06-15T02:21:45.538Z,14.13
2018-06-15T02:24:14.386Z,15.70
2018-06-15T02:26:43.099Z,14.47
2018-06-15T02:29:11.834Z,15.30
2018-06-15T02:31:40.546Z,15.83
2018-06-15T02:34:09.250Z,16.10
2018-06-15T02:36:38.095Z,14.63
2018-06-15T02:39:08.694Z,14.10
2018-06-15T02:41:37.421Z,14.80
2018-06-15T02:44:06.218Z,16.67
2018-06-15T02:46:34.907Z,14.17
2018-06-15T02:49:03.678Z,16.67
2018-06-15T02:51:32.443Z,15.13
2018-06-15T02:54:00.820Z,17.07
2018-06-15T02:56:29.601Z,14.73
2018-06-15T02:58:58.414Z,15.33
2018-06-15T03:01:27.318Z,14.80
2018-06-15T03:03:56.173Z,14.77
2018-06-15T03:06:25.286Z,15.90
2018-06-15T03:08:54.144Z,14.90
2018-06-15T03:11:23.339Z,15.30
2018-06-15T03:13:52.075Z,15.47
2018-06-15T03:16:20.758Z,14.87
2018-06-15T03:18:49.491Z,14.40
2018-06-15T03:21:18.233Z,15.20
2018-06-15T03:23:46.942Z,15.47
2018-06-15T03:26:15.668Z,14.77
2018-06-15T03:28:44.418Z,15.50
2018-06-15T03:31:30.303Z,24.83
2018-06-15T03:33:59.012Z,15.27
2018-06-15T03:36:27.783Z,15.10
2018-06-15T03:38:56.510Z,15.17
2018-06-15T03:41:25.235Z,13.93
2018-06-15T03:43:54.046Z,14.60
2018-06-15T03:46:22.757Z,13.47
2018-06-15T03:48:51.450Z,13.87
2018-06-15T03:51:20.226Z,13.53
2018-06-15T03:53:48.927Z,21.33
2018-06-15T03:56:17.705Z,13.90
2018-06-15T03:58:46.416Z,14.17
2018-06-15T04:01:14.718Z,14.00
2018-06-15T04:03:43.498Z,13.77
2018-06-15T04:06:12.268Z,13.83
2018-06-15T04:08:41.002Z,13.37
2018-06-15T04:11:09.741Z,13.00
2018-06-15T04:13:38.432Z,14.30
2018-06-15T04:16:07.838Z,13.33
2018-06-15T04:18:36.536Z,13.60
2018-06-15T04:21:05.327Z,14.33
2018-06-15T04:23:34.017Z,15.33
2018-06-15T04:26:02.755Z,15.00
2018-06-15T04:28:31.483Z,13.47
2018-06-15T04:31:00.188Z,13.60
2018-06-15T04:33:32.013Z,14.83
2018-06-15T04:36:00.334Z,14.47
2018-06-15T04:38:29.209Z,13.40
2018-06-15T04:40:57.913Z,13.50
2018-06-15T04:43:26.639Z,14.20
2018-06-15T04:45:55.343Z,13.37
2018-06-15T04:48:24.050Z,13.93
2018-06-15T04:50:52.795Z,13.23
2018-06-15T04:53:21.543Z,14.37
2018-06-15T04:55:50.242Z,15.13
2018-06-15T04:58:18.959Z,14.93
2018-06-15T05:00:47.696Z,14.23
2018-06-15T05:03:16.523Z,13.67
2018-06-15T05:05:45.736Z,14.10
2018-06-15T05:08:14.521Z,14.27
2018-06-15T05:10:43.214Z,13.80
2018-06-15T05:13:12.207Z,14.70
2018-06-15T05:15:40.550Z,13.33
2018-06-15T05:18:10.187Z,16.93
2018-06-15T05:20:38.929Z,13.17
2018-06-15T05:23:07.663Z,13.27
2018-06-15T05:25:36.025Z,14.33
2018-06-15T05:28:05.396Z,13.93
2018-06-15T05:30:34.163Z,14.00
2018-06-15T05:33:02.884Z,14.50
2018-06-15T05:35:31.553Z,14.40
2018-06-15T05:38:00.258Z,16.70
2018-06-15T05:40:28.946Z,14.53
2018-06-15T05:45:51.155Z,14.83
2018-06-15T05:48:20.629Z,14.27
2018-06-15T05:50:48.913Z,14.47
2018-06-15T05:53:17.214Z,14.23
2018-06-15T05:55:45.588Z,15.80
2018-06-15T05:58:14.946Z,16.30
2018-06-15T06:00:43.312Z,16.50
2018-06-15T06:03:16.188Z,16.70
2018-06-15T06:05:45.032Z,15.60
2018-06-15T06:08:13.787Z,18.00
2018-06-15T06:10:42.626Z,14.07
2018-06-15T06:13:11.466Z,14.03
2018-06-15T06:15:40.259Z,14.53
2018-06-15T06:18:08.947Z,14.73
2018-06-15T06:20:37.741Z,13.13
2018-06-15T06:23:06.531Z,13.33
2018-06-15T06:25:35.352Z,13.40
2018-06-15T06:28:04.148Z,12.37
2018-06-15T06:30:32.849Z,12.60
2018-06-15T06:33:02.648Z,13.23
2018-06-15T06:35:31.349Z,14.30
2018-06-15T06:38:00.149Z,12.50
2018-06-15T06:40:28.839Z,13.93
2018-06-15T06:42:57.563Z,13.23
2018-06-15T06:45:26.254Z,12.53
2018-06-15T06:47:54.940Z,12.57
2018-06-15T06:50:23.667Z,14.10
2018-06-15T06:52:52.691Z,14.60
2018-06-15T06:55:21.415Z,13.60
2018-06-15T06:57:50.138Z,14.30
2018-06-15T07:00:18.837Z,13.73
2018-06-15T07:02:47.544Z,13.60
2018-06-15T07:05:16.426Z,12.57
2018-06-15T07:07:45.160Z,11.90
2018-06-15T07:10:13.874Z,13.87
2018-06-15T07:12:42.534Z,13.23
2018-06-15T07:15:11.274Z,13.30
2018-06-15T07:17:39.970Z,14.00
2018-06-15T07:20:08.667Z,13.33
2018-06-15T07:22:37.391Z,13.37
2018-06-15T07:25:06.117Z,14.40
2018-06-15T07:27:34.891Z,17.23
2018-06-15T07:30:03.756Z,14.97
2018-06-15T07:32:32.474Z,14.90
2018-06-15T07:35:01.183Z,13.80
2018-06-15T07:37:36.005Z,14.63
2018-06-15T07:40:04.751Z,15.43
2018-06-15T07:42:33.457Z,13.40
2018-06-15T07:45:02.194Z,13.30
2018-06-15T07:47:30.874Z,14.23
2018-06-15T07:49:59.598Z,14.03
2018-06-15T07:52:28.303Z,13.20
2018-06-15T07:54:56.992Z,13.97
2018-06-15T07:57:25.753Z,12.10
2018-06-15T07:59:54.491Z,14.27
2018-06-15T08:02:23.197Z,13.93
2018-06-15T08:04:51.905Z,14.57
2018-06-15T08:07:20.603Z,13.60
2018-06-15T08:10:09.732Z,13.73
2018-06-15T08:12:38.417Z,13.27
2018-06-15T08:15:07.170Z,17.50
2018-06-15T08:17:35.940Z,13.00
2018-06-15T08:20:04.839Z,13.57
2018-06-15T08:22:33.578Z,17.47
2018-06-15T08:25:02.411Z,12.60
2018-06-15T08:27:31.218Z,15.00
2018-06-15T08:29:59.885Z,12.40
2018-06-15T08:32:28.602Z,17.40
2018-06-15T08:34:57.319Z,14.30
2018-06-15T08:37:26.029Z,13.00
2018-06-15T08:39:54.762Z,12.30
2018-06-15T08:42:23.489Z,12.97
2018-06-15T08:50:48.050Z,14.20
2018-06-15T08:53:16.782Z,16.37
2018-06-15T08:55:45.525Z,15.77
2018-06-15T08:58:14.277Z,16.53
2018-06-15T09:00:42.999Z,15.70
2018-06-15T09:03:11.727Z,17.87
2018-06-15T09:05:40.383Z,18.37
2018-06-15T09:08:09.070Z,18.37
2018-06-15T09:10:37.820Z,18.10
2018-06-15T09:13:06.515Z,17.87
2018-06-15T09:15:35.282Z,18.60
2018-06-15T09:18:04.043Z,18.40
2018-06-15T09:20:32.725Z,19.60
2018-06-15T09:23:01.472Z,19.50
2018-06-15T09:25:30.634Z,17.43
2018-06-15T09:27:59.439Z,15.70
2018-06-15T09:30:28.146Z,14.70
2018-06-15T09:32:56.857Z,15.43
2018-06-15T09:35:25.599Z,15.50
2018-06-15T09:37:54.510Z,12.50
2018-06-15T09:40:23.259Z,11.67
2018-06-15T09:42:52.072Z,11.83
2018-06-15T09:45:20.861Z,11.80
2018-06-15T09:47:49.588Z,11.37
2018-06-15T09:50:27.862Z,10.27
2018-06-15T09:52:56.690Z,10.90
2018-06-15T09:55:25.375Z,10.47
2018-06-15T09:57:54.074Z,12.63
2018-06-15T10:00:27.837Z,10.53
2018-06-15T10:02:56.529Z,11.33
2018-06-15T10:05:25.262Z,11.57
2018-06-15T10:07:53.981Z,12.23
2018-06-15T10:10:22.767Z,12.27
2018-06-15T10:12:52.356Z,12.13
2018-06-15T10:15:21.090Z,11.07
2018-06-15T10:17:49.797Z,13.03
2018-06-15T10:20:18.496Z,14.17
2018-06-15T10:22:47.173Z,13.40
2018-06-15T10:25:15.885Z,13.30
2018-06-15T10:27:44.578Z,14.00
2018-06-15T10:30:13.282Z,12.70
2018-06-15T10:32:41.964Z,12.90
2018-06-15T10:35:10.634Z,10.57
2018-06-15T10:37:39.349Z,12.03
2018-06-15T10:40:08.047Z,12.60
2018-06-15T10:42:36.742Z,11.30
2018-06-15T10:45:05.528Z,11.53
2018-06-15T10:47:34.171Z,10.83
2018-06-15T10:50:03.020Z,15.80
2018-06-15T10:52:36.950Z,11.03
2018-06-15T10:55:08.124Z,12.73
2018-06-15T10:57:37.311Z,11.23
2018-06-15T11:00:06.069Z,11.97
2018-06-15T11:02:34.793Z,13.53
2018-06-15T11:05:03.552Z,11.90
2018-06-15T11:07:33.570Z,11.27
2018-06-15T11:10:02.247Z,10.60
2018-06-15T11:12:31.235Z,11.60
2018-06-15T11:15:00.256Z,11.30
2018-06-15T11:17:29.291Z,12.60
2018-06-15T11:20:06.229Z,10.93
2018-06-15T11:22:36.574Z,11.50
2018-06-15T11:25:05.811Z,11.27
2018-06-15T11:27:34.141Z,11.13
2018-06-15T11:30:02.902Z,11.17
2018-06-15T11:32:32.714Z,12.03
2018-06-15T11:35:01.569Z,11.40
2018-06-15T11:37:30.342Z,10.77
2018-06-15T11:39:59.022Z,12.20
2018-06-15T11:42:27.852Z,11.23
2018-06-15T11:45:05.394Z,11.50
2018-06-15T11:47:34.781Z,11.70
2018-06-15T11:50:03.660Z,11.40
2018-06-15T11:52:32.364Z,10.23
2018-06-15T11:55:01.147Z,11.67
2018-06-15T11:57:30.169Z,12.17
2018-06-15T12:00:00.149Z,11.60
2018-06-15T12:02:29.192Z,11.00
2018-06-15T12:05:03.992Z,11.67
2018-06-15T12:07:32.737Z,11.00
2018-06-15T12:10:01.479Z,10.27
2018-06-15T12:12:30.280Z,10.43
2018-06-15T12:14:59.018Z,9.90
2018-06-15T12:17:28.153Z,10.63
2018-06-15T12:19:56.839Z,10.80
2018-06-15T12:22:28.980Z,10.70
2018-06-15T12:24:57.714Z,10.87
2018-06-15T12:27:26.570Z,9.70
2018-06-15T12:29:55.398Z,11.07
2018-06-15T12:32:24.121Z,11.30
2018-06-15T12:34:53.129Z,9.87
2018-06-15T12:37:21.840Z,11.70
2018-06-15T12:39:51.373Z,10.70
2018-06-15T12:42:20.327Z,10.70
2018-06-15T12:44:49.226Z,10.30
2018-06-15T12:47:20.046Z,9.70
2018-06-15T12:49:48.873Z,10.83
2018-06-15T12:52:17.608Z,10.73
2018-06-15T12:54:47.378Z,10.17
2018-06-15T12:57:16.081Z,9.20
2018-06-15T12:59:44.906Z,9.53
2018-06-15T13:02:13.640Z,10.53
2018-06-15T13:04:42.420Z,10.33
2018-06-15T13:07:11.024Z,9.40
2018-06-15T13:09:40.088Z,9.83
2018-06-15T13:12:08.897Z,10.40
2018-06-15T13:14:37.710Z,11.30
2018-06-15T13:17:09.835Z,11.30
2018-06-15T13:19:38.522Z,10.13
2018-06-15T13:22:07.243Z,10.13
2018-06-15T13:24:36.484Z,11.00
2018-06-15T13:27:07.211Z,11.20
2018-06-15T13:29:35.931Z,10.07
2018-06-15T13:32:05.625Z,10.37
2018-06-15T13:34:34.424Z,10.40
2018-06-15T13:37:03.263Z,11.00
2018-06-15T13:39:34.099Z,10.20
2018-06-15T13:42:02.979Z,10.10
2018-06-15T13:44:31.710Z,11.47
2018-06-15T13:47:00.490Z,9.50
2018-06-15T13:49:29.242Z,10.00
2018-06-15T13:51:57.942Z,10.07
2018-06-15T13:54:26.868Z,9.73
2018-06-15T13:56:57.734Z,10.90
2018-06-15T13:59:26.511Z,10.80
2018-06-15T14:01:55.210Z,9.83
2018-06-15T14:04:23.944Z,9.83
2018-06-15T14:06:52.932Z,10.30
2018-06-15T14:09:24.834Z,9.43
2018-06-15T14:11:54.323Z,9.03
2018-06-15T14:14:23.064Z,10.00
2018-06-15T14:16:51.815Z,8.83
2018-06-15T14:19:20.611Z,9.50
2018-06-15T14:21:53.037Z,9.93
2018-06-15T14:24:21.742Z,9.87
2018-06-15T14:26:50.538Z,9.97
2018-06-15T14:29:19.306Z,9.43
2018-06-15T14:31:48.030Z,9.97
2018-06-15T14:34:16.714Z,9.20
2018-06-15T14:36:45.664Z,9.53
2018-06-15T14:39:18.343Z,10.03
2018-06-15T14:41:47.190Z,9.30
2018-06-15T14:44:16.765Z,9.20
2018-06-15T14:46:45.500Z,9.23
2018-06-15T14:49:15.071Z,8.87
2018-06-15T14:51:43.850Z,9.10
2018-06-15T14:54:15.728Z,8.90
2018-06-15T14:56:44.508Z,9.80
2018-06-15T14:59:17.982Z,8.83
2018-06-15T15:01:46.796Z,9.40
2018-06-15T15:04:15.542Z,9.30
2018-06-15T15:06:44.535Z,8.90
2018-06-15T15:09:13.247Z,8.80
2018-06-15T15:11:41.972Z,8.80
2018-06-15T15:14:10.696Z,9.10
2018-06-15T15:16:39.400Z,9.50
2018-06-15T15:19:08.132Z,9.60
2018-06-15T15:21:36.878Z,9.60
2018-06-15T15:24:05.762Z,9.77
2018-06-15T15:26:34.490Z,8.93
2018-06-15T15:29:03.204Z,8.87
2018-06-15T15:31:31.887Z,10.17
2018-06-15T15:34:00.585Z,9.30
2018-06-15T15:36:29.343Z,10.40
2018-06-15T15:38:58.269Z,9.97
2018-06-15T15:41:26.973Z,10.43
2018-06-15T15:43:55.630Z,9.70
2018-06-15T15:46:24.394Z,9.77
2018-06-15T15:48:53.113Z,9.37
2018-06-15T15:51:21.869Z,9.40
2018-06-15T15:53:50.609Z,9.37
2018-06-15T15:56:19.288Z,10.00
2018-06-15T15:58:47.962Z,9.50
2018-06-15T16:04:22.274Z,10.10
2018-06-15T16:06:51.070Z,10.27
2018-06-15T16:09:19.842Z,10.67
2018-06-15T16:11:49.406Z,11.20
2018-06-15T16:14:18.271Z,11.13
2018-06-15T16:16:47.052Z,9.90
2018-06-15T16:19:23.190Z,10.57
2018-06-15T16:21:51.877Z,9.90
2018-06-15T16:24:31.297Z,10.07
2018-06-15T16:26:59.618Z,11.03
2018-06-15T16:29:28.523Z,10.60
2018-06-15T16:31:57.419Z,10.20
2018-06-15T16:34:26.271Z,10.43
2018-06-15T16:36:55.443Z,10.70
2018-06-15T16:39:24.187Z,10.30
2018-06-15T16:41:53.487Z,11.80
2018-06-15T16:44:22.200Z,9.90
2018-06-15T16:46:50.952Z,10.87
2018-06-15T16:49:19.742Z,11.30
2018-06-15T16:51:48.406Z,11.20
2018-06-15T16:54:17.074Z,10.63
2018-06-15T16:56:45.799Z,10.30
2018-06-15T16:59:14.651Z,12.13
2018-06-15T17:01:43.371Z,11.03
2018-06-15T17:04:12.041Z,10.97
2018-06-15T17:06:40.875Z,12.03
2018-06-15T17:09:10.849Z,11.47
2018-06-15T17:11:39.622Z,11.00
2018-06-15T17:14:08.442Z,11.00
2018-06-15T17:16:37.157Z,12.87
2018-06-15T17:19:05.863Z,10.83
2018-06-15T17:21:34.190Z,11.60
2018-06-15T17:24:03.402Z,10.73
2018-06-15T17:26:32.446Z,10.23
2018-06-15T17:29:01.689Z,10.73
2018-06-15T17:31:30.447Z,11.00
2018-06-15T17:33:59.254Z,10.70
2018-06-15T17:36:35.489Z,10.23
2018-06-15T17:39:05.257Z,11.43
2018-06-15T17:41:33.935Z,10.97
2018-06-15T17:44:02.634Z,11.00
2018-06-15T17:46:31.354Z,10.87
2018-06-15T17:48:59.764Z,11.10
2018-06-15T17:51:28.466Z,10.47
2018-06-15T17:53:57.143Z,11.80
2018-06-15T17:56:25.931Z,11.10
2018-06-15T17:59:11.540Z,14.50
2018-06-15T18:01:40.232Z,11.27
2018-06-15T18:04:08.894Z,10.50
2018-06-15T18:06:37.583Z,10.67
2018-06-15T18:09:08.434Z,11.10
2018-06-15T18:11:37.297Z,11.10
2018-06-15T18:14:06.245Z,10.93
2018-06-15T18:16:34.946Z,11.03
2018-06-15T18:19:03.797Z,10.30
2018-06-15T18:21:32.509Z,10.00
2018-06-15T18:24:01.215Z,10.00
2018-06-15T18:26:29.987Z,10.20
2018-06-15T18:28:58.701Z,11.20
2018-06-15T18:31:27.510Z,10.10
2018-06-15T18:33:59.905Z,10.00
2018-06-15T18:36:28.636Z,9.60
2018-06-15T18:38:57.382Z,9.60
2018-06-15T18:41:26.252Z,9.33
2018-06-15T18:43:54.977Z,10.13
2018-06-15T18:46:23.408Z,9.97
2018-06-15T18:48:52.229Z,8.50
2018-06-15T18:51:20.972Z,9.37
2018-06-15T18:53:49.640Z,9.90
2018-06-15T18:56:18.391Z,11.30
2018-06-15T18:58:47.180Z,10.57
2018-06-15T19:01:16.337Z,9.07
2018-06-15T19:03:45.238Z,12.03
2018-06-15T19:06:13.914Z,10.50
2018-06-15T19:08:42.705Z,9.73
2018-06-15T19:11:11.698Z,10.30
2018-06-15T19:13:40.806Z,10.13
2018-06-15T19:16:19.246Z,9.43
2018-06-15T19:18:47.923Z,10.00
2018-06-15T19:21:16.619Z,10.07
2018-06-15T19:23:45.262Z,10.53
2018-06-15T19:26:14.375Z,10.77
2018-06-15T19:28:43.074Z,10.37
2018-06-15T19:31:17.507Z,10.57
2018-06-15T19:33:46.210Z,11.70
2018-06-15T19:36:14.907Z,10.63
2018-06-15T19:38:43.649Z,9.77
2018-06-15T19:41:12.397Z,11.33
2018-06-15T19:52:20.093Z,11.17
2018-06-15T19:54:48.851Z,11.20
2018-06-15T19:57:17.742Z,11.30
2018-06-15T19:59:46.509Z,11.47
2018-06-15T20:02:15.189Z,11.57
2018-06-15T20:04:46.764Z,12.13
2018-06-15T20:07:15.440Z,11.60
2018-06-15T20:09:44.489Z,12.53
2018-06-15T20:12:13.187Z,13.43
2018-06-15T20:14:41.842Z,12.73
2018-06-15T20:17:14.323Z,13.30
2018-06-15T20:19:43.007Z,13.37
2018-06-15T20:22:11.692Z,13.40
2018-06-15T20:24:40.427Z,11.93
2018-06-15T20:27:09.182Z,12.43
2018-06-15T20:29:37.914Z,11.90
2018-06-15T20:32:06.742Z,12.10
2018-06-15T20:34:35.533Z,11.97
2018-06-15T20:37:04.225Z,12.10
2018-06-15T20:39:32.895Z,11.00
2018-06-15T20:42:01.603Z,12.93
2018-06-15T20:44:30.266Z,12.70
2018-06-15T20:46:58.994Z,11.87
2018-06-15T20:49:27.711Z,12.30
2018-06-15T20:51:56.441Z,12.80
2018-06-15T20:54:25.144Z,13.07
2018-06-15T20:56:53.874Z,14.20
2018-06-15T20:59:22.657Z,15.03
2018-06-15T21:01:51.758Z,14.10
2018-06-15T21:04:20.495Z,15.30
2018-06-15T21:06:48.852Z,15.53
2018-06-15T21:09:17.525Z,16.83
2018-06-15T21:11:46.224Z,16.57
2018-06-15T21:14:14.986Z,17.60
2018-06-15T21:16:43.777Z,16.17
2018-06-15T21:19:12.499Z,17.23
2018-06-15T21:21:41.187Z,17.80
2018-06-15T21:24:09.886Z,17.10
2018-06-15T21:26:38.583Z,16.20
2018-06-15T21:29:07.262Z,18.20
2018-06-15T21:31:35.975Z,17.43
2018-06-15T21:34:04.723Z,18.13
2018-06-15T21:36:33.412Z,18.83
2018-06-15T21:39:01.718Z,18.13
2018-06-15T21:41:30.440Z,19.30
2018-06-15T21:43:59.157Z,23.67
2018-06-15T21:46:27.831Z,18.73
2018-06-15T21:48:56.506Z,19.00
2018-06-15T21:51:25.237Z,19.03
2018-06-15T21:53:53.894Z,18.30
2018-06-15T21:56:22.603Z,17.40
2018-06-15T21:58:51.274Z,18.60
2018-06-15T22:01:21.133Z,20.47
2018-06-15T22:03:49.844Z,19.80
2018-06-15T22:06:18.531Z,19.13
2018-06-15T22:08:47.479Z,20.30
2018-06-15T22:11:16.180Z,17.90
2018-06-15T22:13:44.868Z,19.97
2018-06-15T22:16:13.582Z,19.33
2018-06-15T22:18:42.274Z,19.20
2018-06-15T22:21:10.999Z,19.17
2018-06-15T22:23:39.674Z,18.20
2018-06-15T22:26:11.882Z,18.67
2018-06-15T22:28:40.605Z,18.13
2018-06-15T22:31:09.327Z,18.13
2018-06-15T22:33:38.011Z,19.03
2018-06-15T22:36:06.736Z,18.93
2018-06-15T22:38:35.442Z,19.37
2018-06-15T22:41:04.119Z,18.93
2018-06-15T22:43:32.777Z,19.53
2018-06-15T22:46:01.504Z,17.63
2018-06-15T22:48:30.187Z,18.47
2018-06-15T22:50:58.943Z,17.80
2018-06-15T22:53:27.628Z,18.23
2018-06-15T22:55:56.289Z,17.57
2018-06-15T22:58:25.014Z,17.90
2018-06-15T23:00:53.700Z,17.20
2018-06-15T23:03:22.435Z,19.47
2018-06-15T23:05:51.103Z,18.90
2018-06-15T23:08:19.779Z,18.57
2018-06-15T23:10:48.462Z,19.50
2018-06-15T23:13:17.141Z,20.03
2018-06-15T23:15:45.881Z,20.60
2018-06-15T23:18:14.578Z,20.10
2018-06-15T23:20:43.250Z,19.87
2018-06-15T23:23:11.970Z,20.70
2018-06-15T23:25:40.667Z,20.10
2018-06-15T23:28:09.375Z,23.10
2018-06-15T23:30:38.063Z,21.27
2018-06-15T23:33:06.726Z,19.97
2018-06-15T23:35:35.415Z,20.23
2018-06-15T23:38:04.116Z,20.60
2018-06-15T23:40:32.850Z,19.93
2018-06-15T23:43:01.519Z,21.07
2018-06-15T23:45:30.199Z,18.90
2018-06-15T23:47:58.878Z,18.87
2018-06-15T23:50:27.562Z,19.40
2018-06-15T23:52:56.250Z,20.13
2018-06-15T23:55:24.914Z,19.93
2018-06-15T23:57:53.594Z,21.13
